No particular awareness of the weather is required.    There are no Weather-warnings


Meteo18 Weather Cam more information Meteo18 Weather Cam


Thunder radar more information blitzortung!


Rain radar more information rain snow radar


Visit our other weather sites:

Template documentation
and downloads

And another site



Weather Underground History page Text

Daily Summary for September 5, 2017 Units:  English    Metric   Both
« Previous Day
Next Day »
Daily Weekly Monthly Yearly Custom
  High: Low: Average:
Temperature: TemperatureC °F 17.7 °F 20.1 °F
Dew Point: DewpointC °F 14.7 °F 15.9 °F
Humidity: Humidity % 67 % 77 %
Wind Speed: WindSpeedKMH mph 0.0 mph 5.5 mph
Wind Gust: WindSpeedGustKMH mph - -
Wind:- - WSW
Pressure: PressurehPa in 1020.2 in -
Precipitation: 0.0 in    
Historical Graphs
 
 
Tabular Data for September 5, 2017
Time Temperature Dew Point Pressure Wind Wind Speed Wind Gust Humidity Rainfall Rate (Hourly)
TemperatureC °F DewpointC °F PressurehPa in Calm     Humidity % HourlyPrecipMM in
00:02 18.1 °F 15.2 °F 1020.2 in Calm   1.6 mph 83 % 0.0 in
00:07 18.1 °F 15.0 °F 1020.2 in Calm   1.6 mph 82 % 0.0 in
00:12 18.0 °F 14.7 °F 1020.5 in Calm   1.6 mph 81 % 0.0 in
00:17 18.0 °F 14.9 °F 1020.2 in Calm   1.6 mph 82 % 0.0 in
00:22 18.1 °F 15.0 °F 1020.5 in Calm   1.6 mph 82 % 0.0 in
00:32 18.1 °F 15.0 °F 1020.5 in Calm     82 % 0.0 in
00:42 18.2 °F 15.1 °F 1020.5 in Calm     82 % 0.0 in
00:47 18.3 °F 15.2 °F 1020.5 in Calm     82 % 0.0 in
00:52 18.3 °F 15.2 °F 1020.5 in Calm     82 % 0.0 in
00:57 18.3 °F 15.2 °F 1020.5 in Calm     82 % 0.0 in
01:02 18.3 °F 15.2 °F 1020.5 in Calm     82 % 0.0 in
01:07 18.3 °F 15.2 °F 1020.5 in Calm     82 % 0.0 in
01:12 18.3 °F 15.2 °F 1020.5 in Calm     82 % 0.0 in
01:17 18.3 °F 15.2 °F 1020.5 in Calm     82 % 0.0 in
01:22 18.3 °F 15.2 °F 1020.5 in Calm     82 % 0.0 in
01:27 18.3 °F 15.4 °F 1020.5 in Calm     83 % 0.0 in
01:32 18.3 °F 15.4 °F 1020.5 in Calm     83 % 0.0 in
01:37 18.3 °F 15.4 °F 1020.5 in Calm     83 % 0.0 in
01:42 18.3 °F 15.4 °F 1020.5 in Calm     83 % 0.0 in
01:47 18.3 °F 15.5 °F 1020.5 in Calm     84 % 0.0 in
01:52 18.4 °F 15.6 °F 1020.5 in Calm     84 % 0.0 in
02:02 18.7 °F 15.8 °F 1020.2 in Calm     83 % 0.0 in
02:07 18.8 °F 15.9 °F 1020.2 in Calm     83 % 0.0 in
02:12 19.0 °F 15.9 °F 1020.2 in Calm     82 % 0.0 in
02:17 19.2 °F 16.1 °F 1020.2 in WSW 3.2 mph 3.2 mph 82 % 0.0 in
02:22 19.3 °F 16.1 °F 1020.5 in South 1.6 mph 4.8 mph 82 % 0.0 in
02:27 19.2 °F 15.9 °F 1020.5 in Calm   4.8 mph 81 % 0.0 in
02:32 18.8 °F 15.3 °F 1020.5 in Calm   4.8 mph 80 % 0.0 in
02:37 18.6 °F 15.1 °F 1020.5 in ESE 1.6 mph 3.2 mph 80 % 0.0 in
02:42 18.7 °F 15.4 °F 1020.5 in Calm   4.8 mph 81 % 0.0 in
02:47 18.7 °F 15.4 °F 1020.5 in ESE 1.6 mph 4.8 mph 81 % 0.0 in
02:52 18.7 °F 15.4 °F 1020.5 in Calm   4.8 mph 81 % 0.0 in
02:57 18.7 °F 15.6 °F 1020.2 in Calm   4.8 mph 82 % 0.0 in
03:02 18.7 °F 15.6 °F 1020.2 in Calm   1.6 mph 82 % 0.0 in
03:07 18.7 °F 15.6 °F 1020.2 in Calm   1.6 mph 82 % 0.0 in
03:17 18.6 °F 15.5 °F 1020.5 in Calm   1.6 mph 82 % 0.0 in
03:22 18.5 °F 15.4 °F 1020.2 in Calm   1.6 mph 82 % 0.0 in
03:32 18.4 °F 15.5 °F 1020.5 in Calm   1.6 mph 83 % 0.0 in
03:37 18.4 °F 15.5 °F 1020.2 in Calm   1.6 mph 83 % 0.0 in
03:47 18.5 °F 15.7 °F 1020.5 in Calm   1.6 mph 84 % 0.0 in
03:52 18.5 °F 15.7 °F 1020.5 in Calm   1.6 mph 84 % 0.0 in
03:57 18.6 °F 15.8 °F 1020.2 in Calm   1.6 mph 84 % 0.0 in
04:02 18.6 °F 15.8 °F 1020.5 in Calm   1.6 mph 84 % 0.0 in
04:07 18.6 °F 16.0 °F 1020.2 in Calm   1.6 mph 85 % 0.0 in
04:12 18.7 °F 16.1 °F 1020.2 in Calm   1.6 mph 85 % 0.0 in
04:17 18.7 °F 16.1 °F 1020.2 in Calm   1.6 mph 85 % 0.0 in
04:22 18.7 °F 16.1 °F 1020.2 in Calm   1.6 mph 85 % 0.0 in
04:32 18.7 °F 16.1 °F 1020.2 in Calm     85 % 0.0 in
04:37 18.7 °F 16.1 °F 1020.5 in Calm     85 % 0.0 in
04:42 18.7 °F 16.1 °F 1020.5 in Calm     85 % 0.0 in
04:47 18.7 °F 16.1 °F 1020.5 in Calm     85 % 0.0 in
04:52 18.7 °F 16.1 °F 1020.5 in Calm     85 % 0.0 in
04:57 18.7 °F 16.1 °F 1020.2 in Calm     85 % 0.0 in
05:02 18.7 °F 16.1 °F 1020.5 in Calm     85 % 0.0 in
05:17 18.7 °F 16.1 °F 1020.5 in Calm     85 % 0.0 in
05:22 18.7 °F 16.1 °F 1020.5 in Calm     85 % 0.0 in
05:27 18.7 °F 16.1 °F 1020.5 in Calm     85 % 0.0 in
05:32 18.7 °F 16.1 °F 1020.5 in Calm     85 % 0.0 in
05:42 18.7 °F 16.3 °F 1020.5 in South 1.6 mph 3.2 mph 86 % 0.0 in
05:47 18.7 °F 16.3 °F 1020.5 in Calm   3.2 mph 86 % 0.0 in
05:52 18.7 °F 16.3 °F 1020.5 in Calm   3.2 mph 86 % 0.0 in
05:57 18.7 °F 16.3 °F 1020.5 in Calm   3.2 mph 86 % 0.0 in
06:02 18.6 °F 16.4 °F 1020.5 in Calm   3.2 mph 87 % 0.0 in
06:12 18.6 °F 16.4 °F 1020.5 in Calm   3.2 mph 87 % 0.0 in
06:17 18.6 °F 16.4 °F 1020.5 in South 1.6 mph 3.2 mph 87 % 0.0 in
06:22 18.6 °F 16.4 °F 1020.5 in Calm   3.2 mph 87 % 0.0 in
06:32 18.5 °F 16.5 °F 1020.5 in SW 1.6 mph 4.8 mph 88 % 0.0 in
06:37 18.4 °F 16.4 °F 1020.5 in SW 3.2 mph 4.8 mph 88 % 0.0 in
06:47 18.4 °F 16.4 °F 1020.5 in SW 1.6 mph 4.8 mph 88 % 0.0 in
06:52 18.4 °F 16.4 °F 1020.5 in Calm   4.8 mph 88 % 0.0 in
06:57 18.3 °F 16.3 °F 1020.5 in Calm   4.8 mph 88 % 0.0 in
07:02 18.3 °F 16.3 °F 1020.5 in Calm   4.8 mph 88 % 0.0 in
07:12 18.1 °F 16.3 °F 1020.5 in Calm   3.2 mph 89 % 0.0 in
07:17 18.1 °F 16.3 °F 1020.5 in Calm   4.8 mph 89 % 0.0 in
07:22 17.9 °F 16.1 °F 1020.5 in Calm   4.8 mph 89 % 0.0 in
07:32 17.8 °F 16.1 °F 1020.9 in Calm   3.2 mph 90 % 0.0 in
07:37 17.8 °F 16.1 °F 1020.9 in Calm   3.2 mph 90 % 0.0 in
07:42 17.8 °F 16.1 °F 1020.9 in Calm   3.2 mph 90 % 0.0 in
07:47 17.8 °F 16.1 °F 1020.9 in Calm   1.6 mph 90 % 0.0 in
07:52 17.7 °F 16.0 °F 1020.9 in SSW 1.6 mph 1.6 mph 90 % 0.0 in
07:57 17.7 °F 16.0 °F 1020.9 in SSW 1.6 mph 3.2 mph 90 % 0.0 in
08:02 17.7 °F 16.0 °F 1020.9 in Calm   4.8 mph 90 % 0.0 in
08:12 17.8 °F 16.1 °F 1020.9 in SSW 3.2 mph 4.8 mph 90 % 0.0 in
08:17 17.9 °F 16.2 °F 1020.9 in SW 1.6 mph 6.4 mph 90 % 0.0 in
08:27 18.1 °F 16.3 °F 1020.9 in SW 4.8 mph 6.4 mph 89 % 0.0 in
08:32 18.2 °F 16.4 °F 1020.9 in WSW 4.8 mph 4.8 mph 89 % 0.0 in
08:42 18.3 °F 16.5 °F 1020.9 in WSW 3.2 mph 11.3 mph 89 % 0.0 in
08:47 18.3 °F 16.3 °F 1020.9 in West 4.8 mph 11.3 mph 88 % 0.0 in
08:52 18.3 °F 16.1 °F 1020.9 in SW 6.4 mph 9.7 mph 87 % 0.0 in
08:57 18.3 °F 16.1 °F 1021.2 in WSW 8.0 mph 12.9 mph 87 % 0.0 in
09:02 18.3 °F 15.9 °F 1021.2 in SW 6.4 mph 12.9 mph 86 % 0.0 in
09:12 18.3 °F 15.9 °F 1021.2 in WSW 4.8 mph 14.5 mph 86 % 0.0 in
09:17 18.3 °F 15.9 °F 1021.2 in WSW 8.0 mph 14.5 mph 86 % 0.0 in
09:22 18.3 °F 15.7 °F 1021.2 in WSW 8.0 mph 12.9 mph 85 % 0.0 in
09:32 18.5 °F 15.9 °F 1021.2 in West 6.4 mph 16.1 mph 85 % 0.0 in
09:37 18.7 °F 15.9 °F 1021.2 in SW 6.4 mph 16.1 mph 84 % 0.0 in
09:42 18.9 °F 15.9 °F 1020.9 in Calm   16.1 mph 83 % 0.0 in
09:47 18.8 °F 15.7 °F 1021.2 in West 8.0 mph 16.1 mph 82 % 0.0 in
09:52 18.7 °F 15.8 °F 1021.2 in West 8.0 mph 12.9 mph 83 % 0.0 in
09:57 18.7 °F 15.8 °F 1021.2 in SW 6.4 mph 12.9 mph 83 % 0.0 in
10:02 18.8 °F 15.9 °F 1020.9 in SSW 6.4 mph 14.5 mph 83 % 0.0 in
10:12 18.9 °F 15.8 °F 1021.2 in SW 8.0 mph 19.3 mph 82 % 0.0 in
10:17 19.0 °F 16.0 °F 1021.2 in SW 4.8 mph 19.3 mph 83 % 0.0 in
10:22 19.0 °F 15.9 °F 1021.2 in WSW 6.4 mph 19.3 mph 82 % 0.0 in
10:32 19.1 °F 16.0 °F 1021.2 in SW 9.7 mph 14.5 mph 82 % 0.0 in
10:37 19.2 °F 15.9 °F 1021.2 in SSW 4.8 mph 11.3 mph 81 % 0.0 in
10:42 19.2 °F 16.1 °F 1021.2 in Calm   12.9 mph 82 % 0.0 in
10:47 19.3 °F 16.1 °F 1021.2 in SW 6.4 mph 12.9 mph 82 % 0.0 in
11:02 19.6 °F 16.1 °F 1021.6 in SW 4.8 mph 16.1 mph 80 % 0.0 in
11:07 19.8 °F 16.1 °F 1021.2 in WSW 4.8 mph 16.1 mph 79 % 0.0 in
11:12 19.8 °F 15.9 °F 1021.2 in SW 6.4 mph 12.9 mph 78 % 0.0 in
11:17 20.2 °F 16.4 °F 1021.2 in SW 11.3 mph 12.9 mph 79 % 0.0 in
11:22 20.2 °F 16.2 °F 1021.2 in SW 9.7 mph 14.5 mph 78 % 0.0 in
11:27 20.0 °F 15.8 °F 1021.6 in SW 6.4 mph 19.3 mph 77 % 0.0 in
11:32 20.0 °F 15.8 °F 1021.6 in SW 9.7 mph 19.3 mph 77 % 0.0 in
11:37 20.2 °F 16.0 °F 1021.2 in SW 12.9 mph 19.3 mph 77 % 0.0 in
11:42 20.1 °F 15.7 °F 1021.2 in WSW 14.5 mph 20.9 mph 76 % 0.0 in
11:47 20.1 °F 15.9 °F 1021.2 in SW 8.0 mph 20.9 mph 77 % 0.0 in
11:52 20.3 °F 16.1 °F 1021.2 in West 8.0 mph 20.9 mph 77 % 0.0 in
12:02 20.5 °F 16.1 °F 1021.2 in SW 8.0 mph 17.7 mph 76 % 0.0 in
12:07 20.6 °F 16.0 °F 1021.2 in South 12.9 mph 17.7 mph 75 % 0.0 in
12:12 20.9 °F 16.1 °F 1021.2 in SW 19.3 mph 19.3 mph 74 % 0.0 in
12:17 20.9 °F 15.9 °F 1021.2 in SSW 8.0 mph 20.9 mph 73 % 0.0 in
12:22 20.8 °F 16.0 °F 1021.2 in SW 12.9 mph 20.9 mph 74 % 0.0 in
12:32 21.3 °F 16.3 °F 1021.2 in SW 9.7 mph 17.7 mph 73 % 0.0 in
12:42 21.8 °F 16.3 °F 1020.9 in SW 8.0 mph 22.5 mph 71 % 0.0 in
12:47 21.9 °F 16.2 °F 1020.9 in SSW 9.7 mph 22.5 mph 70 % 0.0 in
12:52 22.1 °F 16.1 °F 1020.9 in West 11.3 mph 22.5 mph 69 % 0.0 in
12:57 22.4 °F 16.2 °F 1020.9 in SW 12.9 mph 22.5 mph 68 % 0.0 in
13:02 22.2 °F 16.2 °F 1020.9 in West 8.0 mph 24.1 mph 69 % 0.0 in
13:07 22.2 °F 16.0 °F 1020.9 in West 9.7 mph 24.1 mph 68 % 0.0 in
13:12 22.2 °F 16.2 °F 1020.9 in WSW 12.9 mph 24.1 mph 69 % 0.0 in
13:17 22.4 °F 16.2 °F 1020.9 in West 4.8 mph 22.5 mph 68 % 0.0 in
13:22 22.6 °F 16.2 °F 1020.9 in WSW 8.0 mph 22.5 mph 67 % 0.0 in
13:27 22.4 °F 16.0 °F 1020.9 in WSW 12.9 mph 24.1 mph 67 % 0.0 in
13:32 22.3 °F 16.1 °F 1020.9 in SW 11.3 mph 24.1 mph 68 % 0.0 in
13:37 22.1 °F 16.1 °F 1020.9 in West 8.0 mph 24.1 mph 69 % 0.0 in
13:42 22.0 °F 16.3 °F 1020.9 in WSW 12.9 mph 19.3 mph 70 % 0.0 in
13:47 21.9 °F 16.4 °F 1020.9 in WSW 12.9 mph 19.3 mph 71 % 0.0 in
13:52 21.8 °F 16.3 °F 1020.5 in SSW 14.5 mph 19.3 mph 71 % 0.0 in
13:57 21.9 °F 16.0 °F 1020.5 in SW 17.7 mph 20.9 mph 69 % 0.0 in
14:02 22.0 °F 16.0 °F 1020.5 in WSW 14.5 mph 20.9 mph 69 % 0.0 in
14:07 21.9 °F 16.0 °F 1020.5 in West 4.8 mph 20.9 mph 69 % 0.0 in
14:12 21.9 °F 16.2 °F 1020.9 in WSW 9.7 mph 19.3 mph 70 % 0.0 in
14:17 21.8 °F 16.1 °F 1020.5 in WSW 9.7 mph 19.3 mph 70 % 0.0 in
14:22 21.7 °F 16.2 °F 1020.9 in West 8.0 mph 20.9 mph 71 % 0.0 in
14:27 21.7 °F 16.2 °F 1020.9 in SW 14.5 mph 20.9 mph 71 % 0.0 in
14:32 21.7 °F 16.0 °F 1020.9 in SW 6.4 mph 19.3 mph 70 % 0.0 in
14:37 21.8 °F 15.9 °F 1020.9 in SW 11.3 mph 19.3 mph 69 % 0.0 in
14:42 21.9 °F 15.7 °F 1020.9 in SW 4.8 mph 17.7 mph 68 % 0.0 in
14:52 22.0 °F 15.8 °F 1020.9 in West 4.8 mph 20.9 mph 68 % 0.0 in
14:57 22.0 °F 15.6 °F 1020.9 in SW 8.0 mph 20.9 mph 67 % 0.0 in
15:02 21.9 °F 15.7 °F 1020.9 in WSW 11.3 mph 20.9 mph 68 % 0.0 in
15:07 21.7 °F 16.0 °F 1020.9 in WSW 8.0 mph 24.1 mph 70 % 0.0 in
15:17 21.5 °F 15.8 °F 1020.9 in WNW 9.7 mph 24.1 mph 70 % 0.0 in
15:22 21.6 °F 16.1 °F 1020.9 in WNW 6.4 mph 19.3 mph 71 % 0.0 in
15:27 21.7 °F 16.0 °F 1020.9 in WNW 6.4 mph 19.3 mph 70 % 0.0 in
15:32 21.8 °F 16.1 °F 1021.2 in West 6.4 mph 16.1 mph 70 % 0.0 in
15:42 21.8 °F 16.1 °F 1020.9 in West 9.7 mph 20.9 mph 70 % 0.0 in
15:47 21.8 °F 15.9 °F 1020.9 in West 12.9 mph 20.9 mph 69 % 0.0 in
15:52 21.8 °F 16.1 °F 1020.9 in WSW 14.5 mph 17.7 mph 70 % 0.0 in
15:57 21.7 °F 16.2 °F 1020.9 in West 12.9 mph 20.9 mph 71 % 0.0 in
16:02 21.6 °F 16.1 °F 1020.9 in WSW 4.8 mph 20.9 mph 71 % 0.0 in
16:07 21.8 °F 16.3 °F 1020.9 in WNW 9.7 mph 20.9 mph 71 % 0.0 in
16:12 21.9 °F 16.2 °F 1020.9 in SW 9.7 mph 20.9 mph 70 % 0.0 in
16:17 22.1 °F 15.9 °F 1020.9 in WSW 6.4 mph 17.7 mph 68 % 0.0 in
16:22 22.1 °F 15.9 °F 1020.9 in WSW 8.0 mph 22.5 mph 68 % 0.0 in
16:27 22.3 °F 16.1 °F 1020.9 in West 9.7 mph 24.1 mph 68 % 0.0 in
16:37 22.3 °F 16.1 °F 1020.5 in WSW 9.7 mph 24.1 mph 68 % 0.0 in
16:42 22.4 °F 16.2 °F 1020.9 in WSW 4.8 mph 22.5 mph 68 % 0.0 in
16:47 22.4 °F 16.4 °F 1020.5 in West 11.3 mph 22.5 mph 69 % 0.0 in
16:52 22.4 °F 16.4 °F 1020.5 in West 8.0 mph 19.3 mph 69 % 0.0 in
16:57 22.6 °F 16.6 °F 1020.5 in SSW 6.4 mph 19.3 mph 69 % 0.0 in
17:02 22.9 °F 16.7 °F 1020.5 in SW 6.4 mph 19.3 mph 68 % 0.0 in
17:07 22.9 °F 16.4 °F 1020.5 in West 12.9 mph 16.1 mph 67 % 0.0 in
17:12 22.8 °F 16.4 °F 1020.5 in WSW 16.1 mph 19.3 mph 67 % 0.0 in
17:17 22.7 °F 16.3 °F 1020.5 in West 6.4 mph 22.5 mph 67 % 0.0 in
17:22 22.7 °F 16.3 °F 1020.5 in SSW 6.4 mph 22.5 mph 67 % 0.0 in
17:27 22.6 °F 16.4 °F 1020.5 in West 4.8 mph 22.5 mph 68 % 0.0 in
17:32 22.6 °F 16.4 °F 1020.2 in WNW 11.3 mph 19.3 mph 68 % 0.0 in
17:37 22.6 °F 16.6 °F 1020.5 in WSW 9.7 mph 25.7 mph 69 % 0.0 in
17:42 22.4 °F 16.4 °F 1020.5 in WSW 11.3 mph 25.7 mph 69 % 0.0 in
17:47 22.4 °F 16.4 °F 1020.5 in NW 4.8 mph 25.7 mph 69 % 0.0 in
17:52 22.4 °F 16.4 °F 1020.5 in WSW 12.9 mph 24.1 mph 69 % 0.0 in
17:57 22.2 °F 16.5 °F 1020.5 in WNW 16.1 mph 24.1 mph 70 % 0.0 in
18:02 22.2 °F 16.5 °F 1020.5 in SSW 9.7 mph 27.4 mph 70 % 0.0 in
18:12 22.0 °F 16.7 °F 1020.5 in WSW 17.7 mph 27.4 mph 72 % 0.0 in
18:17 21.9 °F 16.6 °F 1020.5 in West 16.1 mph 24.1 mph 72 % 0.0 in
18:22 21.8 °F 16.3 °F 1020.5 in WSW 6.4 mph 22.5 mph 71 % 0.0 in
18:32 21.9 °F 16.2 °F 1020.5 in SW 14.5 mph 20.9 mph 70 % 0.0 in
18:42 21.9 °F 16.4 °F 1020.5 in WSW 9.7 mph 20.9 mph 71 % 0.0 in
18:47 22.0 °F 16.5 °F 1020.5 in SW 12.9 mph 20.9 mph 71 % 0.0 in
18:52 21.9 °F 16.6 °F 1020.5 in SW 12.9 mph 20.9 mph 72 % 0.0 in
18:57 21.9 °F 16.6 °F 1020.5 in SW 9.7 mph 20.9 mph 72 % 0.0 in
19:02 22.0 °F 16.7 °F 1020.5 in WSW 11.3 mph 20.9 mph 72 % 0.0 in
19:12 22.0 °F 16.7 °F 1020.5 in WSW 9.7 mph 19.3 mph 72 % 0.0 in
19:17 21.9 °F 16.8 °F 1020.5 in SW 12.9 mph 19.3 mph 73 % 0.0 in
19:22 21.9 °F 16.6 °F 1020.5 in SW 8.0 mph 19.3 mph 72 % 0.0 in
19:27 21.9 °F 16.6 °F 1020.5 in SW 16.1 mph 16.1 mph 72 % 0.0 in
19:32 21.9 °F 16.6 °F 1020.5 in SW 9.7 mph 17.7 mph 72 % 0.0 in
19:37 21.9 °F 16.6 °F 1020.5 in WSW 8.0 mph 20.9 mph 72 % 0.0 in
19:42 21.8 °F 16.7 °F 1020.5 in West 3.2 mph 20.9 mph 73 % 0.0 in
19:47 21.8 °F 16.7 °F 1020.5 in SW 4.8 mph 20.9 mph 73 % 0.0 in
19:52 21.8 °F 16.7 °F 1020.9 in West 12.9 mph 17.7 mph 73 % 0.0 in
19:57 21.8 °F 16.7 °F 1020.9 in SW 12.9 mph 17.7 mph 73 % 0.0 in
20:02 21.8 °F 16.7 °F 1020.9 in SW 6.4 mph 16.1 mph 73 % 0.0 in
20:07 21.7 °F 16.6 °F 1020.9 in WSW 8.0 mph 16.1 mph 73 % 0.0 in
20:12 21.7 °F 16.6 °F 1020.9 in SW 4.8 mph 16.1 mph 73 % 0.0 in
20:17 21.7 °F 16.9 °F 1020.9 in SW 6.4 mph 14.5 mph 74 % 0.0 in
20:27 21.6 °F 16.8 °F 1020.9 in SSW 3.2 mph 14.5 mph 74 % 0.0 in
20:37 21.6 °F 16.8 °F 1020.9 in SW 8.0 mph 11.3 mph 74 % 0.0 in
20:42 21.6 °F 16.8 °F 1021.2 in SW 4.8 mph 11.3 mph 74 % 0.0 in
20:48 21.5 °F 16.7 °F 1021.2 in WSW 6.4 mph 16.1 mph 74 % 0.0 in
20:57 21.5 °F 16.5 °F 1021.2 in WSW 6.4 mph 14.5 mph 73 % 0.0 in
21:07 21.4 °F 16.4 °F 1021.2 in WSW 4.8 mph 12.9 mph 73 % 0.0 in
21:12 21.3 °F 16.3 °F 1021.2 in WSW 1.6 mph 12.9 mph 73 % 0.0 in
21:17 21.3 °F 16.3 °F 1021.6 in SW 1.6 mph 11.3 mph 73 % 0.0 in
21:22 21.2 °F 16.4 °F 1021.2 in SW 3.2 mph 8.0 mph 74 % 0.0 in
21:27 21.1 °F 16.3 °F 1021.6 in WSW 4.8 mph 8.0 mph 74 % 0.0 in
21:32 21.0 °F 16.2 °F 1021.6 in WSW 4.8 mph 12.9 mph 74 % 0.0 in
21:37 20.9 °F 16.1 °F 1021.6 in West 9.7 mph 14.5 mph 74 % 0.0 in
21:42 20.9 °F 15.9 °F 1021.6 in West 4.8 mph 14.5 mph 73 % 0.0 in
21:52 20.8 °F 16.0 °F 1021.6 in WSW 6.4 mph 14.5 mph 74 % 0.0 in
21:57 20.7 °F 15.9 °F 1021.6 in SW 8.0 mph 14.5 mph 74 % 0.0 in
22:02 20.6 °F 15.8 °F 1021.6 in WSW 8.0 mph 12.9 mph 74 % 0.0 in
22:07 20.6 °F 15.8 °F 1021.6 in West 4.8 mph 9.7 mph 74 % 0.0 in
22:12 20.4 °F 15.8 °F 1021.9 in SW 1.6 mph 9.7 mph 75 % 0.0 in
22:17 20.4 °F 15.8 °F 1021.9 in WSW 3.2 mph 9.7 mph 75 % 0.0 in
22:22 20.4 °F 15.6 °F 1021.6 in West 6.4 mph 11.3 mph 74 % 0.0 in
22:27 20.3 °F 15.5 °F 1021.6 in WNW 6.4 mph 11.3 mph 74 % 0.0 in
22:32 20.3 °F 15.5 °F 1021.6 in West 6.4 mph 12.9 mph 74 % 0.0 in
22:37 20.3 °F 15.5 °F 1021.6 in SSW 6.4 mph 16.1 mph 74 % 0.0 in
22:42 20.4 °F 15.6 °F 1021.6 in SW 3.2 mph 16.1 mph 74 % 0.0 in
22:47 20.3 °F 15.5 °F 1021.6 in West 8.0 mph 16.1 mph 74 % 0.0 in
22:52 20.4 °F 15.6 °F 1021.6 in WSW 4.8 mph 16.1 mph 74 % 0.0 in
22:57 20.4 °F 15.6 °F 1021.6 in SW 11.3 mph 16.1 mph 74 % 0.0 in
23:02 20.4 °F 15.6 °F 1021.6 in WSW 6.4 mph 17.7 mph 74 % 0.0 in
23:12 20.3 °F 15.5 °F 1021.6 in West 9.7 mph 19.3 mph 74 % 0.0 in
23:17 20.2 °F 15.4 °F 1021.6 in WSW 3.2 mph 19.3 mph 74 % 0.0 in
23:22 20.2 °F 15.6 °F 1021.9 in SW 8.0 mph 19.3 mph 75 % 0.0 in
23:27 20.1 °F 15.5 °F 1021.9 in West 4.8 mph 17.7 mph 75 % 0.0 in
23:32 19.9 °F 15.3 °F 1021.9 in WSW 9.7 mph 17.7 mph 75 % 0.0 in
23:37 19.9 °F 15.5 °F 1021.9 in SW 4.8 mph 17.7 mph 76 % 0.0 in
23:42 19.8 °F 15.4 °F 1021.9 in WSW 4.8 mph 17.7 mph 76 % 0.0 in
23:47 19.7 °F 15.3 °F 1021.9 in WSW 8.0 mph 16.1 mph 76 % 0.0 in
23:52 19.6 °F 15.5 °F 1021.9 in WSW 3.2 mph 16.1 mph 77 % 0.0 in
23:57 19.6 °F 15.5 °F 1021.9 in SW 6.4 mph 16.1 mph 77 % 0.0 in
Meteo18
Compliments of Weather Underground - 4 mb

Script developed by  Jim McMurry - jmcmurry@mwt.net Adapted for the template by  Wim van der Kuil - Leuven-Template.eu

You find our weather info also at:

European Weather Network

Weather Underground

Equipment we use:

Weather-station
Davis Vue

Weather-program
Meteobridge

Weather-server
Raspberry PI 2 B+

Provider
1 and 1

Davis Vue

Meteobridge

Raspberry PI 2 B+

1 and 1